Terminal Aerodrome Forecast
Issued by NWS Grand Forks, ND

Home | Current Version | Previous Version | Graphics & Text | Print | Product List | Glossary On
Versions: 1 2 3 4 5 6 7 8 9 10 11 12 13 14 15
000
FTUS43 KFGF 221132
TAFGFK
TAF
KGFK 221132Z 2212/2312 18010KT P6SM SCT250
     FM221500 20015G23KT P6SM FEW250
     FM222300 22010KT P6SM SCT250=

USA.gov is the U.S. government's official web portal to all federal, state and local government web resources and services.